Time;durP1;ratioP1;P1;durP2;ratioP2;P2;SDS_P1;SDS_P2;PMS_P1;PMS_P2;Temp;Humidity;BMP_temperature;BMP_pressure;BME280_temperature;BME280_humidity;BME280_pressure;Samples;Min_cycle;Max_cycle;Signal;HPM_P1;HPM_P2
2023/08/27 00:02:08;;;;;;;2.30;2.10;;;;;;;-141.26;100.00;62741.75;5082347;28;20237;-82
2023/08/27 00:04:35;;;;;;;2.50;2.30;;;;;;;-141.26;100.00;62741.75;5065599;28;20226;-83
2023/08/27 00:07:02;;;;;;;2.47;2.10;;;;;;;-141.26;100.00;62741.75;5076924;28;20257;-83
2023/08/27 00:09:29;;;;;;;3.53;2.10;;;;;;;-141.26;100.00;62741.75;5045696;28;20260;-83
2023/08/27 00:11:57;;;;;;;2.23;2.00;;;;;;;-141.26;100.00;62741.75;5054933;28;20313;-83
2023/08/27 00:14:24;;;;;;;2.30;2.10;;;;;;;-141.26;100.00;62741.75;5065816;28;20222;-83
2023/08/27 00:16:52;;;;;;;2.23;2.10;;;;;;;-141.26;100.00;62741.75;5081525;28;20214;-84
2023/08/27 00:19:19;;;;;;;2.50;2.30;;;;;;;-141.26;100.00;62741.75;5075020;28;20246;-81
2023/08/27 00:21:46;;;;;;;2.50;2.30;;;;;;;-141.26;100.00;62741.75;5065303;28;20225;-80
2023/08/27 00:24:13;;;;;;;2.80;2.10;;;;;;;-141.26;100.00;62741.75;5057224;28;20285;-84
2023/08/27 00:26:39;;;;;;;2.60;2.40;;;;;;;-141.26;100.00;62741.75;5045551;28;20294;-84
2023/08/27 00:29:08;;;;;;;2.87;2.67;;;;;;;-141.26;100.00;62741.75;5045399;28;20227;-78
2023/08/27 00:31:35;;;;;;;2.80;2.60;;;;;;;-141.26;100.00;62741.75;5046303;28;20252;-77
2023/08/27 00:34:02;;;;;;;3.13;2.60;;;;;;;-141.26;100.00;62741.75;5066203;28;20226;-95
2023/08/27 00:36:29;;;;;;;3.90;2.50;;;;;;;-141.26;100.00;62741.75;5082765;28;20222;-95
2023/08/27 00:38:55;;;;;;;3.13;2.60;;;;;;;-141.26;100.00;62741.75;5083386;28;20214;-93
2023/08/27 00:41:22;;;;;;;2.77;2.37;;;;;;;-141.26;100.00;62741.75;5082949;28;20223;-92
2023/08/27 00:43:49;;;;;;;2.60;2.40;;;;;;;-141.26;100.00;62741.75;5065821;28;20321;-92
2023/08/27 00:46:18;;;;;;;2.63;2.43;;;;;;;-141.26;100.00;62741.75;5046653;28;20229;-90
2023/08/27 00:48:45;;;;;;;3.10;2.30;;;;;;;-141.26;100.00;62741.75;5065223;28;20272;-90
2023/08/27 00:51:13;;;;;;;2.57;2.37;;;;;;;-141.26;100.00;62741.75;5065572;28;20230;-91
2023/08/27 00:53:40;;;;;;;2.73;2.30;;;;;;;-141.26;100.00;62741.75;5065210;28;20272;-88
2023/08/27 00:56:08;;;;;;;4.30;2.60;;;;;;;-141.26;100.00;62741.75;5065458;28;20237;-89
2023/08/27 00:58:35;;;;;;;2.83;2.40;;;;;;;-141.26;100.00;62741.75;5065041;28;20233;-89
2023/08/27 01:01:04;;;;;;;2.47;2.27;;;;;;;-141.26;100.00;62741.75;5082145;28;20316;-89
2023/08/27 01:03:34;;;;;;;2.87;2.50;;;;;;;-141.26;100.00;62741.75;5081283;28;20230;-89
2023/08/27 01:06:01;;;;;;;2.90;2.70;;;;;;;-141.26;100.00;62741.75;5045756;28;20222;-89
2023/08/27 01:08:43;;;;;;;3.53;2.70;;;;;;;-141.26;100.00;62741.75;5058162;28;20239;-78
2023/08/27 01:11:19;;;;;;;2.97;2.67;;;;;;;-141.26;100.00;62741.75;5064562;28;20232;-78
2023/08/27 01:13:52;;;;;;;2.63;2.43;;;;;;;-141.26;100.00;62741.75;5056592;28;20231;-78
2023/08/27 01:16:21;;;;;;;4.27;2.67;;;;;;;-141.26;100.00;62741.75;5044958;28;20219;-78
2023/08/27 01:18:52;;;;;;;3.20;2.70;;;;;;;-141.26;100.00;62741.75;5052156;28;20221;-78
2023/08/27 01:21:21;;;;;;;2.90;2.70;;;;;;;-141.26;100.00;62741.75;5064725;28;20221;-78
2023/08/27 01:23:48;;;;;;;2.47;2.27;;;;;;;-141.26;100.00;62741.75;5050169;28;20222;-78
2023/08/27 01:26:21;;;;;;;3.70;2.50;;;;;;;-141.26;100.00;62741.75;5064757;28;20214;-78
2023/08/27 01:28:55;;;;;;;3.10;2.80;;;;;;;-141.26;100.00;62741.75;5052489;28;20271;-79
2023/08/27 01:31:27;;;;;;;3.60;2.40;;;;;;;-141.26;100.00;62741.75;5057667;28;20253;-79
2023/08/27 01:33:56;;;;;;;3.03;2.83;;;;;;;-141.26;100.00;62741.75;5062361;28;20234;-79
2023/08/27 01:36:25;;;;;;;3.50;2.77;;;;;;;-141.26;100.00;62741.75;5064528;28;20229;-79
2023/08/27 01:38:52;;;;;;;3.43;3.13;;;;;;;-141.26;100.00;62741.75;5081402;28;20226;-79
2023/08/27 01:41:19;;;;;;;2.97;2.77;;;;;;;-141.26;100.00;62741.75;5082794;28;20229;-80
2023/08/27 01:43:46;;;;;;;4.50;3.00;;;;;;;-141.26;100.00;62741.75;5082405;28;20212;-89
2023/08/27 01:46:12;;;;;;;3.30;2.33;;;;;;;-141.26;100.00;62741.75;5065946;28;20280;-90
2023/08/27 01:48:39;;;;;;;4.73;3.13;;;;;;;-141.26;100.00;62741.75;5067586;28;20687;-88
2023/08/27 01:51:06;;;;;;;3.93;2.70;;;;;;;-141.26;100.00;62741.75;5067977;28;20225;-86
2023/08/27 01:53:34;;;;;;;3.80;2.90;;;;;;;-141.26;100.00;62741.75;5086117;28;20300;-86
2023/08/27 01:56:02;;;;;;;3.50;3.20;;;;;;;-141.26;100.00;62741.75;5053219;28;20224;-92
2023/08/27 01:58:29;;;;;;;5.13;3.00;;;;;;;-141.26;100.00;62741.75;5067283;28;20284;-91
2023/08/27 02:00:56;;;;;;;3.73;3.37;;;;;;;-141.26;100.00;62741.75;5084903;28;20228;-88
2023/08/27 02:03:23;;;;;;;3.13;2.93;;;;;;;-141.26;100.00;62741.75;5068044;28;20236;-89
2023/08/27 02:05:50;;;;;;;3.47;2.90;;;;;;;-141.26;100.00;62741.75;5057180;28;20226;-88
2023/08/27 02:08:17;;;;;;;3.47;2.90;;;;;;;-141.26;100.00;62741.75;5048145;28;20231;-88
2023/08/27 02:10:49;;;;;;;3.13;2.70;;;;;;;-141.26;100.00;62741.75;5068014;28;20225;-88
2023/08/27 02:13:15;;;;;;;4.13;2.87;;;;;;;-141.26;100.00;62741.75;5067837;28;20225;-88
2023/08/27 02:15:43;;;;;;;3.90;3.60;;;;;;;-141.26;100.00;62741.75;5067128;28;20225;-88
2023/08/27 02:18:10;;;;;;;3.53;3.23;;;;;;;-141.26;100.00;62741.75;5067542;28;20218;-90
2023/08/27 02:20:37;;;;;;;3.47;3.17;;;;;;;-141.26;100.00;62741.75;5066245;28;20223;-90
2023/08/27 02:23:04;;;;;;;3.43;3.13;;;;;;;-141.26;100.00;62741.75;5059934;28;20231;-92
2023/08/27 02:25:31;;;;;;;3.20;2.90;;;;;;;-141.26;100.00;62741.75;5050152;28;20273;-92
2023/08/27 02:27:59;;;;;;;4.03;2.67;;;;;;;-141.26;100.00;62741.75;5067824;28;20218;-88
2023/08/27 02:30:26;;;;;;;4.87;3.10;;;;;;;-141.26;100.00;62741.75;5076450;28;20222;-88
2023/08/27 02:32:54;;;;;;;4.50;3.30;;;;;;;-141.26;100.00;62741.75;5047465;28;20229;-88
2023/08/27 02:35:21;;;;;;;4.73;3.10;;;;;;;-141.26;100.00;62741.75;5047264;28;20227;-78
2023/08/27 02:37:48;;;;;;;3.90;3.60;;;;;;;-141.26;100.00;62741.75;5047225;28;20228;-82
2023/08/27 02:40:17;;;;;;;3.13;2.83;;;;;;;-141.26;100.00;62741.75;5047284;28;20226;-90
2023/08/27 02:42:45;;;;;;;3.33;3.03;;;;;;;-141.26;100.00;62741.75;5047639;28;20226;-81
2023/08/27 02:45:13;;;;;;;3.60;3.30;;;;;;;-141.26;100.00;62741.75;5047133;28;20233;-82
2023/08/27 02:47:40;;;;;;;4.03;3.10;;;;;;;-141.26;100.00;62741.75;5060511;28;20222;-82
2023/08/27 02:50:08;;;;;;;3.70;3.13;;;;;;;-141.26;100.00;62741.75;5083167;28;20244;-78
2023/08/27 02:52:35;;;;;;;3.47;3.27;;;;;;;-141.26;100.00;62741.75;5047031;28;20222;-78
2023/08/27 02:55:03;;;;;;;3.77;3.47;;;;;;;-141.26;100.00;62741.75;5063599;28;20224;-78
2023/08/27 02:57:30;;;;;;;3.70;3.40;;;;;;;-141.26;100.00;62741.75;5062372;28;20219;-78
2023/08/27 02:59:57;;;;;;;3.60;3.40;;;;;;;-141.26;100.00;62741.75;5063462;28;20248;-78
2023/08/27 03:02:26;;;;;;;4.77;3.90;;;;;;;-141.26;100.00;62741.75;5062765;28;20237;-78
2023/08/27 03:04:53;;;;;;;4.90;4.03;;;;;;;-141.26;100.00;62741.75;5046799;28;20237;-78
2023/08/27 03:07:20;;;;;;;3.90;3.60;;;;;;;-141.26;100.00;62741.75;5046728;28;20228;-78
2023/08/27 03:09:47;;;;;;;5.17;3.90;;;;;;;-141.26;100.00;62741.75;5046573;28;20280;-78
2023/08/27 03:12:13;;;;;;;4.77;4.10;;;;;;;-141.26;100.00;62741.75;5079198;28;20222;-78
2023/08/27 03:14:40;;;;;;;5.63;4.07;;;;;;;-141.26;100.00;62741.75;5084647;28;20225;-78
2023/08/27 03:17:08;;;;;;;4.30;3.97;;;;;;;-141.26;100.00;62741.75;5083196;28;20246;-78
2023/08/27 03:19:36;;;;;;;5.40;4.60;;;;;;;-141.26;100.00;62741.75;5066397;28;20290;-78
2023/08/27 03:22:03;;;;;;;4.93;4.53;;;;;;;-141.26;100.00;62741.75;5083014;28;20230;-78
2023/08/27 03:24:30;;;;;;;6.43;4.20;;;;;;;-141.26;100.00;62741.75;5082972;28;20226;-78
2023/08/27 03:26:57;;;;;;;6.23;4.67;;;;;;;-141.26;100.00;62741.75;5066248;28;20271;-78
2023/08/27 03:29:25;;;;;;;4.13;3.83;;;;;;;-141.26;100.00;62741.75;5084252;28;20283;-78
2023/08/27 03:31:52;;;;;;;6.80;4.57;;;;;;;-141.26;100.00;62741.75;5066058;28;20224;-78
2023/08/27 03:34:19;;;;;;;5.03;4.20;;;;;;;-141.26;100.00;62741.75;5066176;28;20257;-78
2023/08/27 03:36:47;;;;;;;5.27;4.77;;;;;;;-141.26;100.00;62741.75;5065976;28;20222;-78
2023/08/27 03:39:14;;;;;;;5.73;5.13;;;;;;;-141.26;100.00;62741.75;5062822;28;20223;-78
2023/08/27 03:41:41;;;;;;;6.07;5.47;;;;;;;-141.26;100.00;62741.75;5062717;28;20229;-78
2023/08/27 03:44:08;;;;;;;7.53;6.83;;;;;;;-141.26;100.00;62741.75;5046157;28;20223;-78
2023/08/27 03:46:35;;;;;;;8.83;7.93;;;;;;;-141.26;100.00;62741.75;5045874;28;20248;-78
2023/08/27 03:49:04;;;;;;;8.70;7.90;;;;;;;-141.26;100.00;62741.75;5045476;28;20234;-78
2023/08/27 03:51:31;;;;;;;9.03;8.20;;;;;;;-141.26;100.00;62741.75;5046010;28;20211;-78
2023/08/27 03:54:00;;;;;;;8.50;7.80;;;;;;;-141.26;100.00;62741.75;5046197;28;20214;-78
2023/08/27 03:56:27;;;;;;;10.13;8.30;;;;;;;-141.26;100.00;62741.75;5045976;28;20222;-78
2023/08/27 03:58:54;;;;;;;8.83;8.00;;;;;;;-141.26;100.00;62741.75;5060577;28;20229;-78
2023/08/27 04:01:21;;;;;;;9.00;8.00;;;;;;;-141.26;100.00;62741.75;5065580;28;20226;-78
2023/08/27 04:03:48;;;;;;;9.00;8.20;;;;;;;-141.26;100.00;62741.75;5065709;28;20222;-78
2023/08/27 04:06:15;;;;;;;8.27;7.47;;;;;;;-141.26;100.00;62741.75;5065737;28;20249;-78
2023/08/27 04:08:41;;;;;;;7.00;6.30;;;;;;;-141.26;100.00;62741.75;5054818;28;20235;-78
2023/08/27 04:11:10;;;;;;;9.27;8.33;;;;;;;-141.26;100.00;62741.75;5045715;28;20310;-78
2023/08/27 04:13:37;;;;;;;9.07;8.17;;;;;;;-141.26;100.00;62741.75;5060156;28;20253;-78
2023/08/27 04:16:07;;;;;;;8.37;7.53;;;;;;;-141.26;100.00;62741.75;5082176;28;20222;-78
2023/08/27 04:18:34;;;;;;;7.30;6.70;;;;;;;-141.26;100.00;62741.75;5065516;28;20218;-78
2023/08/27 04:21:02;;;;;;;9.40;6.90;;;;;;;-141.26;100.00;62741.75;5065556;28;20229;-78
2023/08/27 04:23:29;;;;;;;7.90;7.17;;;;;;;-141.26;100.00;62741.75;5065657;28;20240;-78
2023/08/27 04:25:57;;;;;;;8.23;7.43;;;;;;;-141.26;100.00;62741.75;5065345;28;20218;-78
2023/08/27 04:28:26;;;;;;;8.33;7.53;;;;;;;-141.26;100.00;62741.75;5064918;28;20241;-79
2023/08/27 04:30:54;;;;;;;7.33;6.60;;;;;;;-141.26;100.00;62741.75;5081838;28;20222;-80
2023/08/27 04:33:21;;;;;;;8.20;7.60;;;;;;;-141.26;100.00;62741.75;5057102;28;20311;-81
2023/08/27 04:35:50;;;;;;;8.00;7.20;;;;;;;-141.26;100.00;62741.75;5045320;28;20233;-81
2023/08/27 04:38:17;;;;;;;8.80;8.03;;;;;;;-141.26;100.00;62741.75;5045407;28;20227;-81
2023/08/27 04:40:44;;;;;;;8.63;7.87;;;;;;;-141.26;100.00;62741.75;5078383;28;20234;-80
2023/08/27 04:43:11;;;;;;;8.10;7.40;;;;;;;-141.26;100.00;62741.75;5078465;28;20257;-79
2023/08/27 04:45:40;;;;;;;8.60;7.70;;;;;;;-141.26;100.00;62741.75;5045245;28;20223;-79
2023/08/27 04:48:08;;;;;;;8.73;7.80;;;;;;;-141.26;100.00;62741.75;5045092;28;20234;-79
2023/08/27 04:50:37;;;;;;;8.33;7.53;;;;;;;-141.26;100.00;62741.75;5044649;28;20293;-79
2023/08/27 04:53:04;;;;;;;8.40;7.67;;;;;;;-141.26;100.00;62741.75;5045202;28;20250;-79
2023/08/27 04:55:31;;;;;;;8.33;7.53;;;;;;;-141.26;100.00;62741.75;5081787;28;20230;-78
2023/08/27 04:57:58;;;;;;;8.43;7.47;;;;;;;-141.26;100.00;62741.75;5064945;28;20214;-78
2023/08/27 05:00:25;;;;;;;8.43;7.50;;;;;;;-141.26;100.00;62741.75;5071176;28;20235;-79
2023/08/27 05:02:53;;;;;;;8.27;7.30;;;;;;;-141.26;100.00;62741.75;5044921;28;20227;-79
2023/08/27 05:05:20;;;;;;;8.10;6.90;;;;;;;-141.26;100.00;62741.75;5045176;28;20227;-78
2023/08/27 05:07:48;;;;;;;8.33;7.07;;;;;;;-141.26;100.00;62741.75;5044954;28;20317;-79
2023/08/27 05:10:15;;;;;;;7.37;6.57;;;;;;;-141.26;100.00;62741.75;5050379;28;20244;-81
2023/08/27 05:12:42;;;;;;;7.30;6.67;;;;;;;-141.26;100.00;62741.75;5064845;28;20218;-81
2023/08/27 05:15:11;;;;;;;7.20;6.60;;;;;;;-141.26;100.00;62741.75;5081575;28;20280;-81
2023/08/27 05:17:39;;;;;;;7.23;6.57;;;;;;;-141.26;100.00;62741.75;5064926;28;20222;-82
2023/08/27 05:20:09;;;;;;;7.07;6.37;;;;;;;-141.26;100.00;62741.75;5064157;28;20222;-82
2023/08/27 05:22:36;;;;;;;7.30;6.47;;;;;;;-141.26;100.00;62741.75;5081701;28;20229;-82
2023/08/27 05:25:04;;;;;;;7.63;6.83;;;;;;;-141.26;100.00;62741.75;5080713;28;20312;-82
2023/08/27 05:27:32;;;;;;;8.07;7.27;;;;;;;-141.26;100.00;62741.75;5064558;28;20236;-81
2023/08/27 05:29:58;;;;;;;7.67;6.83;;;;;;;-141.26;100.00;62741.75;5064671;28;20324;-81
2023/08/27 05:32:25;;;;;;;6.13;5.60;;;;;;;-141.26;100.00;62741.75;5050653;28;20226;-81
2023/08/27 05:34:54;;;;;;;6.73;6.13;;;;;;;-141.26;100.00;62741.75;5049366;28;20222;-82
2023/08/27 05:37:24;;;;;;;5.33;4.93;;;;;;;-141.26;100.00;62741.75;5081411;28;20218;-80
2023/08/27 05:39:52;;;;;;;6.07;5.47;;;;;;;-141.26;100.00;62741.75;5081357;28;20548;-84
2023/08/27 05:42:18;;;;;;;5.80;5.20;;;;;;;-141.26;100.00;62741.75;5081217;28;20214;-84
2023/08/27 05:44:45;;;;;;;5.93;5.43;;;;;;;-141.26;100.00;62741.75;5081529;28;20222;-83
2023/08/27 05:47:14;;;;;;;5.50;5.00;;;;;;;-141.26;100.00;62741.75;5064536;28;20228;-79
2023/08/27 05:49:43;;;;;;;5.77;5.27;;;;;;;-141.26;100.00;62741.75;5061049;28;20256;-82
2023/08/27 05:52:10;;;;;;;5.90;5.30;;;;;;;-141.26;100.00;62741.75;5044342;28;20246;-85
2023/08/27 05:54:38;;;;;;;5.53;5.03;;;;;;;-141.26;100.00;62741.75;5044796;28;20230;-84
2023/08/27 05:57:06;;;;;;;5.03;4.63;;;;;;;-141.26;100.00;62741.75;5044080;28;20250;-85
2023/08/27 05:59:33;;;;;;;4.90;4.50;;;;;;;-141.26;100.00;62741.75;5044262;28;20222;-86
2023/08/27 06:02:00;;;;;;;5.63;4.20;;;;;;;-141.26;100.00;62741.75;5044236;28;20227;-78
2023/08/27 06:04:29;;;;;;;7.83;6.53;;;;;;;-141.26;100.00;62741.75;5044427;28;20218;-77
2023/08/27 06:06:56;;;;;;;5.33;4.83;;;;;;;-141.26;100.00;62741.75;5044279;28;20251;-79
2023/08/27 06:09:23;;;;;;;3.70;3.40;;;;;;;-141.26;100.00;62741.75;5044122;28;20235;-79
2023/08/27 06:11:51;;;;;;;5.53;3.87;;;;;;;-141.26;100.00;62741.75;5044270;28;20222;-84
2023/08/27 06:14:18;;;;;;;4.80;3.30;;;;;;;-141.26;100.00;62741.75;5044053;28;20233;-78
2023/08/27 06:16:45;;;;;;;6.70;3.53;;;;;;;-141.26;100.00;62741.75;5044363;28;20240;-80
2023/08/27 06:19:12;;;;;;;3.43;3.07;;;;;;;-141.26;100.00;62741.75;5044221;28;20230;-80
2023/08/27 06:21:39;;;;;;;6.53;3.43;;;;;;;-141.26;100.00;62741.75;5044185;28;20226;-77
2023/08/27 06:24:06;;;;;;;3.80;3.43;;;;;;;-141.26;100.00;62741.75;5062253;28;20325;-82
2023/08/27 06:26:33;;;;;;;3.43;3.13;;;;;;;-141.26;100.00;62741.75;5043904;28;20220;-77
2023/08/27 06:29:02;;;;;;;3.40;2.70;;;;;;;-141.26;100.00;62741.75;5044073;28;20215;-78
2023/08/27 06:31:30;;;;;;;3.00;2.70;;;;;;;-141.26;100.00;62741.75;5044379;28;20219;-80
2023/08/27 06:33:58;;;;;;;3.00;2.70;;;;;;;-141.26;100.00;62741.75;5046999;28;20230;-77
2023/08/27 06:36:25;;;;;;;5.80;4.00;;;;;;;-141.26;100.00;62741.75;5047203;28;20304;-77
2023/08/27 06:38:53;;;;;;;4.37;2.67;;;;;;;-141.26;100.00;62741.75;5047275;28;20222;-77
2023/08/27 06:41:20;;;;;;;3.03;2.73;;;;;;;-141.26;100.00;62741.75;5047029;28;20321;-77
2023/08/27 06:43:52;;;;;;;4.47;2.90;;;;;;;-141.26;100.00;62741.75;5047056;28;20291;-78
2023/08/27 06:46:23;;;;;;;2.57;2.37;;;;;;;-141.26;100.00;62741.75;5065192;28;20218;-78
2023/08/27 06:48:51;;;;;;;2.67;2.47;;;;;;;-141.26;100.00;62741.75;5083487;28;20238;-78
2023/08/27 06:51:18;;;;;;;3.17;2.27;;;;;;;-141.26;100.00;62741.75;5072419;28;20236;-78
2023/08/27 06:53:45;;;;;;;1.80;1.70;;;;;;;-141.26;100.00;62741.75;5062971;28;20230;-79
2023/08/27 06:56:12;;;;;;;2.13;2.00;;;;;;;-141.26;100.00;62741.75;5083949;28;20228;-80
2023/08/27 06:58:39;;;;;;;2.13;1.93;;;;;;;-141.26;100.00;62741.75;5083841;28;20301;-77
2023/08/27 07:01:06;;;;;;;2.07;1.97;;;;;;;-141.26;100.00;62741.75;5083612;28;20223;-78
2023/08/27 07:03:34;;;;;;;1.90;1.80;;;;;;;-141.26;100.00;62741.75;5066573;28;20226;-79
2023/08/27 07:06:01;;;;;;;2.10;1.90;;;;;;;-141.26;100.00;62741.75;5066844;28;20218;-78
2023/08/27 07:08:28;;;;;;;2.17;1.93;;;;;;;-141.26;100.00;62741.75;5066788;28;20225;-80
2023/08/27 07:10:56;;;;;;;1.87;1.77;;;;;;;-141.26;100.00;62741.75;5066747;28;20230;-80
2023/08/27 07:13:23;;;;;;;1.90;1.80;;;;;;;-141.26;100.00;62741.75;5066562;28;20221;-79
2023/08/27 07:15:50;;;;;;;2.20;2.00;;;;;;;-141.26;100.00;62741.75;5066780;28;20231;-78
2023/08/27 07:18:17;;;;;;;1.73;1.63;;;;;;;-141.26;100.00;62741.75;5083552;28;20225;-76
2023/08/27 07:20:45;;;;;;;3.50;2.27;;;;;;;-141.26;100.00;62741.75;5047280;28;20227;-78
2023/08/27 07:23:12;;;;;;;3.30;2.03;;;;;;;-141.26;100.00;62741.75;5046435;28;20222;-79
2023/08/27 07:25:39;;;;;;;1.73;1.63;;;;;;;-141.26;100.00;62741.75;5046367;28;20222;-77
2023/08/27 07:28:06;;;;;;;3.30;2.07;;;;;;;-141.26;100.00;62741.75;5046403;28;20219;-78
2023/08/27 07:30:33;;;;;;;3.20;2.30;;;;;;;-141.26;100.00;62741.75;5046383;28;20230;-78
2023/08/27 07:33:00;;;;;;;2.93;2.23;;;;;;;-141.26;100.00;62741.75;5051445;28;20233;-78
2023/08/27 07:35:29;;;;;;;5.37;3.13;;;;;;;-141.26;100.00;62741.75;5082984;28;20281;-79
2023/08/27 07:37:57;;;;;;;2.80;1.90;;;;;;;-141.26;100.00;62741.75;5066361;28;20218;-79
2023/08/27 07:40:25;;;;;;;5.30;4.20;;;;;;;-141.26;100.00;62741.75;5083063;28;20229;-79
2023/08/27 07:42:52;;;;;;;8.40;6.20;;;;;;;-141.26;100.00;62741.75;5066054;28;20218;-79
2023/08/27 07:45:19;;;;;;;9.23;6.90;;;;;;;-141.26;100.00;62741.75;5082649;28;20317;-80
2023/08/27 07:47:46;;;;;;;4.40;3.73;;;;;;;-141.26;100.00;62741.75;5066133;28;20288;-79
2023/08/27 07:50:13;;;;;;;5.30;4.90;;;;;;;-141.26;100.00;62741.75;5082624;28;20263;-79
2023/08/27 07:52:40;;;;;;;6.60;5.30;;;;;;;-141.26;100.00;62741.75;5065810;28;20227;-79
2023/08/27 07:55:10;;;;;;;6.37;5.67;;;;;;;-141.26;100.00;62741.75;5065778;28;20228;-79
2023/08/27 07:57:37;;;;;;;12.57;8.33;;;;;;;-141.26;100.00;62741.75;5082855;28;20229;-79
2023/08/27 08:00:07;;;;;;;12.37;10.10;;;;;;;-141.26;100.00;62741.75;5082613;28;20263;-79
2023/08/27 08:02:41;;;;;;;16.90;13.57;;;;;;;-141.26;100.00;62741.75;5082430;28;20310;-79
2023/08/27 08:05:09;;;;;;;6.23;5.20;;;;;;;-141.26;100.00;62741.75;5065545;28;20234;-79
2023/08/27 08:07:36;;;;;;;4.07;3.50;;;;;;;-141.26;100.00;62741.75;5083876;28;20225;-79
2023/08/27 08:10:03;;;;;;;6.80;6.10;;;;;;;-141.26;100.00;62741.75;5065636;28;20226;-79
2023/08/27 08:12:31;;;;;;;8.53;6.60;;;;;;;-141.26;100.00;62741.75;5082662;28;20216;-79
2023/08/27 08:14:58;;;;;;;11.27;7.97;;;;;;;-141.26;100.00;62741.75;5082596;28;20274;-79
2023/08/27 08:17:25;;;;;;;3.00;2.73;;;;;;;-141.26;100.00;62741.75;5084050;28;20225;-79
2023/08/27 08:19:52;;;;;;;2.63;2.43;;;;;;;-141.26;100.00;62741.75;5050768;28;20233;-79
2023/08/27 08:22:19;;;;;;;8.33;6.93;;;;;;;-141.26;100.00;62741.75;5056167;28;20229;-79
2023/08/27 08:24:46;;;;;;;7.20;5.93;;;;;;;-141.26;100.00;62741.75;5083383;28;20221;-79
2023/08/27 08:27:13;;;;;;;6.10;4.57;;;;;;;-141.26;100.00;62741.75;5083431;28;20225;-79
2023/08/27 08:29:42;;;;;;;3.20;2.37;;;;;;;-141.26;100.00;62741.75;5065553;28;20284;-79
2023/08/27 08:32:09;;;;;;;4.97;3.87;;;;;;;-141.26;100.00;62741.75;5065467;28;20225;-81
2023/08/27 08:34:36;;;;;;;4.77;2.47;;;;;;;-141.26;100.00;62741.75;5082353;28;20288;-83
2023/08/27 08:37:03;;;;;;;2.50;2.30;;;;;;;-141.26;100.00;62741.75;5082158;28;20225;-81
2023/08/27 08:39:30;;;;;;;2.03;1.70;;;;;;;-141.26;100.00;62741.75;5065498;28;20221;-81
2023/08/27 08:42:03;;;;;;;5.73;1.70;;;;;;;-141.26;100.00;62741.75;5065312;28;20347;-81
2023/08/27 08:44:40;;;;;;;1.90;1.73;;;;;;;-141.26;100.00;62741.75;5067958;28;20258;-81
2023/08/27 08:47:12;;;;;;;2.83;1.80;;;;;;;-141.26;100.00;62741.75;5045420;28;20274;-81
2023/08/27 08:49:40;;;;;;;1.97;1.50;;;;;;;-141.26;100.00;62741.75;5041611;28;20249;-81
2023/08/27 08:52:10;;;;;;;3.40;1.33;;;;;;;-141.26;100.00;62741.75;5058512;28;20267;-81
2023/08/27 08:54:39;;;;;;;2.17;1.30;;;;;;;-141.26;100.00;62741.75;5061293;28;20222;-81
2023/08/27 08:57:09;;;;;;;4.27;1.50;;;;;;;-141.26;100.00;62741.75;5061003;28;20233;-81
2023/08/27 08:59:37;;;;;;;1.63;1.47;;;;;;;-141.26;100.00;62741.75;5078416;28;20219;-81
2023/08/27 09:02:05;;;;;;;1.40;1.30;;;;;;;-141.26;100.00;62741.75;5061497;28;20250;-81
2023/08/27 09:04:34;;;;;;;2.60;1.30;;;;;;;-141.26;100.00;62741.75;5061589;28;20218;-81
2023/08/27 09:07:03;;;;;;;1.33;1.00;;;;;;;-141.26;100.00;62741.75;5061639;28;20230;-81
2023/08/27 09:09:31;;;;;;;1.83;1.27;;;;;;;-141.26;100.00;62741.75;5061538;28;20226;-81
2023/08/27 09:12:00;;;;;;;1.30;1.20;;;;;;;-141.26;100.00;62741.75;5061400;28;20230;-82
2023/08/27 09:14:30;;;;;;;1.07;1.07;;;;;;;-141.26;100.00;62741.75;5061127;28;20219;-82
2023/08/27 09:16:57;;;;;;;1.53;1.43;;;;;;;-141.26;100.00;62741.75;5078263;28;20223;-82
2023/08/27 09:19:23;;;;;;;1.37;1.27;;;;;;;-141.26;100.00;62741.75;5061472;28;20222;-82
2023/08/27 09:21:52;;;;;;;1.40;1.30;;;;;;;-141.26;100.00;62741.75;5062715;28;20264;-82
2023/08/27 09:24:19;;;;;;;1.30;1.20;;;;;;;-141.26;100.00;62741.75;5061522;28;20222;-82
2023/08/27 09:26:46;;;;;;;1.60;1.10;;;;;;;-141.26;100.00;62741.75;5062728;28;20226;-82
2023/08/27 09:29:13;;;;;;;1.47;1.37;;;;;;;-141.26;100.00;62741.75;5061277;28;20219;-83
2023/08/27 09:31:42;;;;;;;1.17;1.10;;;;;;;-141.26;100.00;62741.75;5061221;28;20231;-83
2023/08/27 09:34:09;;;;;;;1.30;1.20;;;;;;;-141.26;100.00;62741.75;5061115;28;20369;-83
2023/08/27 09:36:38;;;;;;;1.30;1.20;;;;;;;-141.26;100.00;62741.75;5061128;28;20229;-83
2023/08/27 09:50:35;;;;;;;1.80;1.00;;;;;;;-141.26;100.00;62741.75;5058013;28;20240;-82
2023/08/27 09:53:06;;;;;;;1.17;1.17;;;;;;;-141.26;100.00;62741.75;5044043;28;20259;-83
2023/08/27 09:55:34;;;;;;;1.60;1.30;;;;;;;-141.26;100.00;62741.75;5044578;28;20219;-83
2023/08/27 09:58:02;;;;;;;1.20;1.07;;;;;;;-141.26;100.00;62741.75;5044380;28;20233;-83
2023/08/27 10:00:29;;;;;;;1.10;1.00;;;;;;;-141.26;100.00;62741.75;5044200;28;20244;-89
2023/08/27 10:02:57;;;;;;;1.07;1.03;;;;;;;-141.26;100.00;62741.75;5060686;28;20282;-83
2023/08/27 10:05:28;;;;;;;2.00;1.10;;;;;;;-141.26;100.00;62741.75;5062196;28;20233;-83
2023/08/27 10:07:59;;;;;;;1.00;1.00;;;;;;;-141.26;100.00;62741.75;5046286;28;20233;-83
2023/08/27 10:10:27;;;;;;;5.50;1.50;;;;;;;-141.26;100.00;62741.75;5047239;28;20230;-83
2023/08/27 10:12:54;;;;;;;7.00;1.40;;;;;;;-141.26;100.00;62741.75;5063768;28;20233;-82
2023/08/27 10:15:23;;;;;;;1.20;1.10;;;;;;;-141.26;100.00;62741.75;5047392;28;20303;-82
2023/08/27 10:17:52;;;;;;;1.20;1.20;;;;;;;-141.26;100.00;62741.75;5047381;28;20236;-82
2023/08/27 10:20:20;;;;;;;1.10;0.97;;;;;;;-141.26;100.00;62741.75;5047037;28;20284;-82
2023/08/27 10:22:48;;;;;;;1.30;1.20;;;;;;;-141.26;100.00;62741.75;5047448;28;20235;-83
2023/08/27 10:25:18;;;;;;;1.53;1.37;;;;;;;-141.26;100.00;62741.75;5047851;28;20229;-89
2023/08/27 10:27:47;;;;;;;1.10;1.10;;;;;;;-141.26;100.00;62741.75;5047340;28;20270;-83
2023/08/27 10:30:15;;;;;;;1.37;1.27;;;;;;;-141.26;100.00;62741.75;5063907;28;20230;-81
2023/08/27 10:32:42;;;;;;;1.43;1.10;;;;;;;-141.26;100.00;62741.75;5047137;28;20235;-81
2023/08/27 10:35:10;;;;;;;1.10;1.10;;;;;;;-141.26;100.00;62741.75;5046683;28;20226;-80
2023/08/27 10:37:38;;;;;;;1.77;1.10;;;;;;;-141.26;100.00;62741.75;5063177;28;20245;-80
2023/08/27 10:40:08;;;;;;;1.23;1.13;;;;;;;-141.26;100.00;62741.75;5047204;28;20292;-80
2023/08/27 10:42:37;;;;;;;1.87;1.17;;;;;;;-141.26;100.00;62741.75;5047005;28;20232;-80
2023/08/27 10:45:12;;;;;;;1.63;1.20;;;;;;;-141.26;100.00;62741.75;5047401;28;20226;-80
2023/08/27 10:47:39;;;;;;;1.00;1.00;;;;;;;-141.26;100.00;62741.75;5046769;28;20259;-80
2023/08/27 10:50:12;;;;;;;1.47;1.37;;;;;;;-141.26;100.00;62741.75;5046737;28;20245;-80
2023/08/27 10:52:50;;;;;;;1.73;1.30;;;;;;;-141.26;100.00;62741.75;5063422;28;20323;-80
2023/08/27 10:55:21;;;;;;;1.00;1.00;;;;;;;-141.26;100.00;62741.75;5046602;28;20230;-80
2023/08/27 10:57:49;;;;;;;1.27;1.17;;;;;;;-141.26;100.00;62741.75;5055401;28;20302;-80
2023/08/27 11:00:17;;;;;;;1.83;1.10;;;;;;;-141.26;100.00;62741.75;5043513;28;20230;-80
2023/08/27 11:02:57;;;;;;;1.37;1.27;;;;;;;-141.26;100.00;62741.75;5043592;28;20223;-80
2023/08/27 11:05:29;;;;;;;1.63;1.10;;;;;;;-141.26;100.00;62741.75;5033100;28;20228;-80
2023/08/27 11:07:59;;;;;;;1.33;1.23;;;;;;;-141.26;100.00;62741.75;5053369;28;20306;-80
2023/08/27 11:10:34;;;;;;;1.23;1.20;;;;;;;-141.26;100.00;62741.75;5047046;28;20229;-80
2023/08/27 11:13:03;;;;;;;1.77;1.27;;;;;;;-141.26;100.00;62741.75;5046498;28;20222;-80
2023/08/27 11:15:32;;;;;;;4.73;1.47;;;;;;;-141.26;100.00;62741.75;5061491;28;20227;-80
2023/08/27 11:18:00;;;;;;;1.43;1.33;;;;;;;-141.26;100.00;62741.75;5053935;28;20215;-80
2023/08/27 11:20:28;;;;;;;1.30;1.30;;;;;;;-141.26;100.00;62741.75;5050462;28;20231;-80
2023/08/27 11:22:57;;;;;;;1.30;1.20;;;;;;;-141.26;100.00;62741.75;5063052;28;20223;-80
2023/08/27 11:25:27;;;;;;;1.20;1.20;;;;;;;-141.26;100.00;62741.75;5061328;28;20250;-80